Time;durP1;ratioP1;P1;durP2;ratioP2;P2;SDS_P1;SDS_P2;PMS_P1;PMS_P2;Temp;Humidity;BMP_temperature;BMP_pressure;BME280_temperature;BME280_humidity;BME280_pressure;Samples;Min_cycle;Max_cycle;Signal;HPM_P1;HPM_P2
2021/08/13 00:00:06;;;;;;;;;;;;;;;22.88;52.18;100630.16;478711;110;921403;-67
2021/08/13 00:01:11;;;;;;;;;;;;;;;22.85;52.06;100634.38;477060;110;921634;-67
2021/08/13 00:02:15;;;;;;;;;;;;;;;22.84;52.08;100631.88;477675;111;921460;-67
2021/08/13 00:03:20;;;;;;;;;;;;;;;22.83;52.13;100631.05;477708;111;921567;-67
2021/08/13 00:04:23;;;;;;;;;;;;;;;22.82;52.14;100632.16;477096;112;922082;-67
2021/08/13 00:05:26;;;;;;;;;;;;;;;22.81;52.19;100632.48;476983;110;921445;-67
2021/08/13 00:06:29;;;;;;;;;;;;;;;22.80;52.09;100634.43;478213;110;921989;-67
2021/08/13 00:07:32;;;;;;;;;;;;;;;22.78;52.16;100628.33;478101;111;921483;-67
2021/08/13 00:08:36;;;;;;;;;;;;;;;22.79;52.33;100640.28;478155;110;921331;-67
2021/08/13 00:09:40;;;;;;;;;;;;;;;22.79;52.11;100635.55;463605;113;921411;-66
2021/08/13 00:10:43;;;;;;;;;;;;;;;22.80;52.17;100644.72;464025;113;921322;-67
2021/08/13 00:11:46;;;;;;;;;;;;;;;22.80;52.24;100633.59;477921;111;921479;-67
2021/08/13 00:12:49;;;;;;;;;;;;;;;22.81;51.93;100640.82;477856;109;921540;-67
2021/08/13 00:13:54;;;;;;;;;;;;;;;22.80;52.10;100636.38;478030;111;922670;-65
2021/08/13 00:14:57;;;;;;;;;;;;;;;22.80;52.25;100644.72;478146;110;921422;-66
2021/08/13 00:16:00;;;;;;;;;;;;;;;22.80;51.89;100641.94;478254;111;921828;-65
2021/08/13 00:17:04;;;;;;;;;;;;;;;22.80;52.09;100633.59;478377;110;921477;-66
2021/08/13 00:18:07;;;;;;;;;;;;;;;22.80;51.89;100642.77;477750;109;922653;-66
2021/08/13 00:19:10;;;;;;;;;;;;;;;22.79;51.75;100641.11;477828;111;922444;-67
2021/08/13 00:20:14;;;;;;;;;;;;;;;22.79;51.90;100635.55;477033;110;923102;-67
2021/08/13 00:21:17;;;;;;;;;;;;;;;22.78;51.91;100633.88;471889;111;922752;-64
2021/08/13 00:22:21;;;;;;;;;;;;;;;22.79;51.95;100641.11;471860;111;923435;-64
2021/08/13 00:23:24;;;;;;;;;;;;;;;22.79;51.86;100643.05;477450;111;922695;-64
2021/08/13 00:24:27;;;;;;;;;;;;;;;22.79;51.68;100645.84;477473;111;922813;-66
2021/08/13 00:25:31;;;;;;;;;;;;;;;22.78;51.73;100633.05;477399;110;922765;-65
2021/08/13 00:26:34;;;;;;;;;;;;;;;22.78;51.81;100642.22;477196;111;922752;-66
2021/08/13 00:27:38;;;;;;;;;;;;;;;22.79;51.84;100645.84;477519;110;922673;-66
2021/08/13 00:28:42;;;;;;;;;;;;;;;22.79;51.60;100646.67;478239;107;922642;-66
2021/08/13 00:29:45;;;;;;;;;;;;;;;22.78;51.60;100642.22;477850;109;922944;-66
2021/08/13 00:30:49;;;;;;;;;;;;;;;22.76;51.52;100650.05;478140;111;922666;-66
2021/08/13 00:31:53;;;;;;;;;;;;;;;22.75;51.75;100637.27;478118;110;923154;-64
2021/08/13 00:32:58;;;;;;;;;;;;;;;22.75;51.81;100639.22;477398;111;922634;-63
2021/08/13 00:34:01;;;;;;;;;;;;;;;22.74;51.71;100643.95;477836;110;921615;-66
2021/08/13 00:35:05;;;;;;;;;;;;;;;22.75;51.81;100642.83;476516;111;921932;-66
2021/08/13 00:36:08;;;;;;;;;;;;;;;22.75;51.80;100645.61;476726;110;924928;-66
2021/08/13 00:37:13;;;;;;;;;;;;;;;22.75;51.66;100648.39;477727;111;922646;-66
2021/08/13 00:38:17;;;;;;;;;;;;;;;22.75;51.78;100644.78;477497;110;923099;-67
2021/08/13 00:39:21;;;;;;;;;;;;;;;22.74;51.77;100643.11;477966;109;922825;-63
2021/08/13 00:40:25;;;;;;;;;;;;;;;22.74;51.80;100652.28;477789;110;923274;-67
2021/08/13 00:41:30;;;;;;;;;;;;;;;22.75;51.80;100651.16;478195;110;923581;-64
2021/08/13 00:42:33;;;;;;;;;;;;;;;22.75;51.72;100645.61;477783;110;921447;-66
2021/08/13 00:43:37;;;;;;;;;;;;;;;22.78;51.57;100644.17;478045;111;921550;-63
2021/08/13 00:44:40;;;;;;;;;;;;;;;22.78;51.63;100644.17;477830;110;922231;-66
2021/08/13 00:45:44;;;;;;;;;;;;;;;22.80;51.67;100644.72;477683;110;921403;-65
2021/08/13 00:46:49;;;;;;;;;;;;;;;22.80;51.55;100648.33;477283;112;921490;-67
2021/08/13 00:48:11;;;;;;;;;;;;;;;22.81;51.46;100655.55;477625;111;922546;-67
2021/08/13 00:49:16;;;;;;;;;;;;;;;22.79;51.50;100646.67;476443;112;923139;-66
2021/08/13 00:50:27;;;;;;;;;;;;;;;22.78;51.59;100647.78;474699;109;922723;-66
2021/08/13 00:51:32;;;;;;;;;;;;;;;22.77;51.69;100643.34;477572;110;921465;-67
2021/08/13 00:52:38;;;;;;;;;;;;;;;22.77;51.59;100640.56;478015;112;921443;-66
2021/08/13 00:53:43;;;;;;;;;;;;;;;22.78;51.61;100636.66;474984;112;921758;-67
2021/08/13 00:54:48;;;;;;;;;;;;;;;22.79;51.50;100631.94;465571;114;921747;-67
2021/08/13 00:55:53;;;;;;;;;;;;;;;22.79;51.52;100643.05;469524;112;921433;-67
2021/08/13 00:57:10;;;;;;;;;;;;;;;22.78;51.39;100636.66;449568;116;921703;-66
2021/08/13 00:58:22;;;;;;;;;;;;;;;22.77;51.42;100648.90;474963;110;921631;-67
2021/08/13 00:59:40;;;;;;;;;;;;;;;22.76;51.42;100649.22;476293;110;921312;-67
2021/08/13 01:00:43;;;;;;;;;;;;;;;22.75;51.49;100641.99;477585;111;921373;-66
2021/08/13 01:01:47;;;;;;;;;;;;;;;22.75;51.46;100641.99;477952;111;921411;-66
2021/08/13 01:02:51;;;;;;;;;;;;;;;22.73;51.49;100642.28;477627;110;921589;-65
2021/08/13 01:03:56;;;;;;;;;;;;;;;22.71;51.53;100647.33;477173;111;921488;-66
2021/08/13 01:05:01;;;;;;;;;;;;;;;22.70;51.55;100648.41;465819;112;921460;-65
2021/08/13 01:06:11;;;;;;;;;;;;;;;22.71;51.51;100644.55;465146;112;921578;-66
2021/08/13 01:07:15;;;;;;;;;;;;;;;22.72;51.58;100648.95;476457;110;921580;-66
2021/08/13 01:08:20;;;;;;;;;;;;;;;22.72;51.62;100651.73;477531;110;922958;-65
2021/08/13 01:09:24;;;;;;;;;;;;;;;22.75;51.46;100655.89;478173;110;921651;-65
2021/08/13 01:10:29;;;;;;;;;;;;;;;22.75;51.35;100655.89;477583;110;921484;-66
2021/08/13 01:11:44;;;;;;;;;;;;;;;22.75;51.18;100656.73;477262;110;922661;-66
2021/08/13 01:13:07;;;;;;;;;;;;;;;22.75;51.28;100655.89;477247;110;921611;-67
2021/08/13 01:14:17;;;;;;;;;;;;;;;22.75;51.34;100655.89;477891;110;921524;-67
2021/08/13 01:15:21;;;;;;;;;;;;;;;22.76;51.28;100661.17;469725;112;921614;-64
2021/08/13 01:16:26;;;;;;;;;;;;;;;22.76;51.18;100660.34;468992;111;922650;-65
2021/08/13 01:17:32;;;;;;;;;;;;;;;22.76;51.26;100663.95;478182;110;921521;-66
2021/08/13 01:18:37;;;;;;;;;;;;;;;22.78;51.33;100661.69;477902;111;922538;-66
2021/08/13 01:19:48;;;;;;;;;;;;;;;22.79;51.19;100660.56;478198;109;922661;-66
2021/08/13 01:21:10;;;;;;;;;;;;;;;22.80;50.84;100667.80;478479;109;921624;-63
2021/08/13 01:22:22;;;;;;;;;;;;;;;22.81;50.91;100657.50;476425;109;922689;-65
2021/08/13 01:23:33;;;;;;;;;;;;;;;22.81;50.94;100660.28;477096;112;921436;-66
2021/08/13 01:24:41;;;;;;;;;;;;;;;22.80;51.04;100659.45;476947;110;922621;-65
2021/08/13 01:25:47;;;;;;;;;;;;;;;22.82;51.06;100664.73;467449;112;921841;-67
2021/08/13 01:26:59;;;;;;;;;;;;;;;22.83;51.11;100667.19;468413;111;923368;-66
2021/08/13 01:28:13;;;;;;;;;;;;;;;22.84;51.10;100671.63;477065;110;922467;-67
2021/08/13 01:29:34;;;;;;;;;;;;;;;22.85;51.16;100669.69;476441;112;922676;-66
2021/08/13 01:30:39;;;;;;;;;;;;;;;22.86;51.27;100674.13;477193;110;922661;-65
2021/08/13 01:31:45;;;;;;;;;;;;;;;22.88;51.30;100679.41;477069;111;923580;-66
2021/08/13 01:32:55;;;;;;;;;;;;;;;22.89;51.22;100684.65;476347;110;922663;-67
2021/08/13 01:34:00;;;;;;;;;;;;;;;22.91;51.23;100685.20;476744;111;922783;-66
2021/08/13 01:35:06;;;;;;;;;;;;;;;22.92;51.24;100688.81;476936;111;922686;-66
2021/08/13 01:36:13;;;;;;;;;;;;;;;22.92;51.25;100686.86;478317;110;922674;-63
2021/08/13 01:37:20;;;;;;;;;;;;;;;22.91;51.21;100693.54;477097;109;921635;-66
2021/08/13 01:38:27;;;;;;;;;;;;;;;22.93;51.25;100696.03;476555;109;921692;-66
2021/08/13 01:39:34;;;;;;;;;;;;;;;22.92;51.20;100695.20;472545;111;922625;-66
2021/08/13 01:40:42;;;;;;;;;;;;;;;22.93;51.21;100694.08;472063;111;923156;-66
2021/08/13 01:41:48;;;;;;;;;;;;;;;22.92;51.22;100694.37;477689;110;921489;-66
2021/08/13 01:42:53;;;;;;;;;;;;;;;22.92;51.30;100697.15;477834;112;921404;-66
2021/08/13 01:44:00;;;;;;;;;;;;;;;22.92;51.28;100694.37;478066;110;922644;-66
2021/08/13 01:45:05;;;;;;;;;;;;;;;22.92;51.27;100692.42;463646;112;923091;-66
2021/08/13 01:46:12;;;;;;;;;;;;;;;22.91;51.27;100699.09;465919;111;922740;-65
2021/08/13 01:47:18;;;;;;;;;;;;;;;22.91;51.24;100696.31;476909;110;921463;-66
2021/08/13 01:48:26;;;;;;;;;;;;;;;22.89;51.13;100704.11;478499;109;921735;-66
2021/08/13 01:49:32;;;;;;;;;;;;;;;22.88;51.16;100699.66;478264;110;921568;-66
2021/08/13 01:50:39;;;;;;;;;;;;;;;22.86;51.18;100697.20;478387;110;921483;-66
2021/08/13 01:51:44;;;;;;;;;;;;;;;22.86;51.24;100704.71;478437;110;922069;-65
2021/08/13 01:52:49;;;;;;;;;;;;;;;22.86;51.25;100704.71;477269;111;921685;-66
2021/08/13 01:53:53;;;;;;;;;;;;;;;22.85;51.25;100703.88;478261;109;921583;-65
2021/08/13 01:54:58;;;;;;;;;;;;;;;22.84;51.28;100706.95;478093;109;921873;-66
2021/08/13 01:56:03;;;;;;;;;;;;;;;22.82;51.32;100703.65;466780;114;921486;-66
2021/08/13 01:57:07;;;;;;;;;;;;;;;22.81;51.25;100711.16;467813;112;921493;-69
2021/08/13 01:58:11;;;;;;;;;;;;;;;22.79;51.23;100713.39;469087;110;921494;-66
2021/08/13 01:59:16;;;;;;;;;;;;;;;22.78;51.17;100703.39;477825;107;921449;-66
2021/08/13 02:00:21;;;;;;;;;;;;;;;22.74;51.24;100707.88;477961;111;921449;-66
2021/08/13 02:01:27;;;;;;;;;;;;;;;22.72;51.38;100710.11;474197;110;921530;-65
2021/08/13 02:02:31;;;;;;;;;;;;;;;22.71;51.32;100707.62;473276;110;922542;-65
2021/08/13 02:03:36;;;;;;;;;;;;;;;22.71;51.30;100710.40;477950;110;922631;-66
2021/08/13 02:04:42;;;;;;;;;;;;;;;22.70;51.34;100712.34;477666;111;922672;-66
2021/08/13 02:05:47;;;;;;;;;;;;;;;22.71;51.45;100704.84;478275;109;921606;-67
2021/08/13 02:06:52;;;;;;;;;;;;;;;22.70;51.45;100714.30;477919;109;921515;-66
2021/08/13 02:07:57;;;;;;;;;;;;;;;22.69;51.46;100702.34;477300;110;922649;-65
2021/08/13 02:09:03;;;;;;;;;;;;;;;22.69;51.48;100715.41;476973;111;922711;-65
2021/08/13 02:10:12;;;;;;;;;;;;;;;22.69;51.54;100710.68;477937;110;921759;-64
2021/08/13 02:11:17;;;;;;;;;;;;;;;22.68;51.56;100710.96;477778;111;923128;-65
2021/08/13 02:12:21;;;;;;;;;;;;;;;22.68;51.64;100714.58;477980;109;922664;-65
2021/08/13 02:13:25;;;;;;;;;;;;;;;22.68;51.56;100709.02;478292;111;922951;-66
2021/08/13 02:14:29;;;;;;;;;;;;;;;22.68;51.59;100699.84;475003;110;923515;-65
2021/08/13 02:15:35;;;;;;;;;;;;;;;22.67;51.60;100707.34;470169;112;923139;-65
2021/08/13 02:16:40;;;;;;;;;;;;;;;22.66;51.73;100710.45;469745;113;922809;-63
2021/08/13 02:17:45;;;;;;;;;;;;;;;22.64;51.50;100710.73;469640;112;922710;-65
2021/08/13 02:18:51;;;;;;;;;;;;;;;22.61;51.50;100711.30;470359;111;922674;-66
2021/08/13 02:19:57;;;;;;;;;;;;;;;22.60;51.64;100709.66;470733;112;921580;-66
2021/08/13 02:21:04;;;;;;;;;;;;;;;22.59;51.78;100716.34;470666;113;922636;-65
2021/08/13 02:22:08;;;;;;;;;;;;;;;22.59;51.67;100709.94;470748;112;923111;-67
2021/08/13 02:23:15;;;;;;;;;;;;;;;22.58;51.61;100713.84;470134;112;922366;-64
2021/08/13 02:24:27;;;;;;;;;;;;;;;22.56;51.77;100710.51;470249;112;923812;-66
2021/08/13 02:25:32;;;;;;;;;;;;;;;22.56;51.76;100716.06;470519;113;922770;-64
2021/08/13 02:26:36;;;;;;;;;;;;;;;22.56;51.73;100716.90;470938;112;922557;-64
2021/08/13 02:27:40;;;;;;;;;;;;;;;22.55;51.68;100718.02;470925;112;922714;-66
2021/08/13 02:28:44;;;;;;;;;;;;;;;22.54;51.74;100716.38;470784;112;922686;-65
2021/08/13 02:29:48;;;;;;;;;;;;;;;22.52;51.63;100721.39;471363;112;923083;-66
2021/08/13 02:30:52;;;;;;;;;;;;;;;22.49;51.63;100719.20;457987;113;923171;-65
2021/08/13 02:31:56;;;;;;;;;;;;;;;22.49;51.70;100724.77;460657;113;923140;-66
2021/08/13 02:33:00;;;;;;;;;;;;;;;22.48;51.81;100725.88;460889;114;922749;-64
2021/08/13 02:34:05;;;;;;;;;;;;;;;22.50;51.85;100717.23;461944;113;922645;-65
2021/08/13 02:35:11;;;;;;;;;;;;;;;22.52;51.88;100718.61;469439;111;922679;-66
2021/08/13 02:36:16;;;;;;;;;;;;;;;22.52;51.92;100721.39;469645;111;922805;-66
2021/08/13 02:37:27;;;;;;;;;;;;;;;22.52;51.99;100718.61;470716;112;922709;-66
2021/08/13 02:38:33;;;;;;;;;;;;;;;22.52;52.00;100726.95;469212;112;923160;-66
2021/08/13 02:39:47;;;;;;;;;;;;;;;22.54;51.98;100726.66;469575;112;922369;-66
2021/08/13 02:41:03;;;;;;;;;;;;;;;22.54;51.91;100719.16;470616;113;921636;-66
2021/08/13 02:42:08;;;;;;;;;;;;;;;22.55;52.00;100742.22;470376;113;921459;-66
2021/08/13 02:43:31;;;;;;;;;;;;;;;22.55;52.09;100731.91;463749;113;921524;-66
2021/08/13 02:44:37;;;;;;;;;;;;;;;22.54;52.17;100746.95;466860;112;921718;-67
2021/08/13 02:45:43;;;;;;;;;;;;;;;22.54;52.08;100744.17;470874;112;921469;-66
2021/08/13 02:46:48;;;;;;;;;;;;;;;22.54;52.17;100746.12;470964;113;921563;-66
2021/08/13 02:47:55;;;;;;;;;;;;;;;22.54;52.14;100743.34;470957;111;921471;-66
2021/08/13 02:48:59;;;;;;;;;;;;;;;22.53;52.16;100747.23;471330;112;921847;-66
2021/08/13 02:50:04;;;;;;;;;;;;;;;22.53;52.26;100742.50;471570;113;921470;-66
2021/08/13 02:51:09;;;;;;;;;;;;;;;22.53;52.27;100750.84;471494;112;921423;-66
2021/08/13 02:52:16;;;;;;;;;;;;;;;22.54;52.26;100748.89;471803;111;921358;-67
2021/08/13 02:53:21;;;;;;;;;;;;;;;22.55;52.15;100754.14;470226;112;921436;-66
2021/08/13 02:54:26;;;;;;;;;;;;;;;22.55;52.16;100751.36;468509;113;921703;-66
2021/08/13 02:55:31;;;;;;;;;;;;;;;22.55;52.22;100750.56;469985;111;921638;-67
2021/08/13 02:56:35;;;;;;;;;;;;;;;22.54;52.10;100754.45;469905;111;921547;-67
2021/08/13 02:57:40;;;;;;;;;;;;;;;22.52;52.19;100754.73;458446;113;922643;-64
2021/08/13 02:58:47;;;;;;;;;;;;;;;22.52;52.23;100756.69;451947;115;922682;-65
2021/08/13 02:59:52;;;;;;;;;;;;;;;22.51;52.26;100757.80;461969;113;923155;-66
2021/08/13 03:00:56;;;;;;;;;;;;;;;22.51;52.21;100758.63;470378;113;921975;-65
2021/08/13 03:02:01;;;;;;;;;;;;;;;22.50;52.28;100759.74;470293;112;921491;-65
2021/08/13 03:03:07;;;;;;;;;;;;;;;22.48;52.26;100762.00;470592;112;922594;-65
2021/08/13 03:04:11;;;;;;;;;;;;;;;22.48;52.30;100763.95;470605;112;921324;-64
2021/08/13 03:05:16;;;;;;;;;;;;;;;22.46;52.15;100767.00;470331;112;922703;-67
2021/08/13 03:06:21;;;;;;;;;;;;;;;22.46;52.12;100767.00;470727;112;922675;-65
2021/08/13 03:07:25;;;;;;;;;;;;;;;22.44;52.12;100770.06;470772;113;921491;-66
2021/08/13 03:08:29;;;;;;;;;;;;;;;22.42;52.24;100774.27;470643;111;921448;-66
2021/08/13 03:09:34;;;;;;;;;;;;;;;22.41;52.32;100778.16;470524;112;921712;-66
2021/08/13 03:10:38;;;;;;;;;;;;;;;22.41;52.33;100772.60;470783;112;921525;-66
2021/08/13 03:11:43;;;;;;;;;;;;;;;22.40;52.34;100780.10;471222;113;923154;-63
2021/08/13 03:12:49;;;;;;;;;;;;;;;22.40;52.35;100780.10;470913;112;922668;-66
2021/08/13 03:13:54;;;;;;;;;;;;;;;22.40;52.35;100785.66;471097;112;922639;-66
2021/08/13 03:14:58;;;;;;;;;;;;;;;22.41;52.37;100780.94;461392;111;923270;-64
2021/08/13 03:16:02;;;;;;;;;;;;;;;22.40;52.33;100785.66;462675;113;922703;-65
2021/08/13 03:17:09;;;;;;;;;;;;;;;22.40;52.32;100784.83;471071;109;922736;-63
2021/08/13 03:18:15;;;;;;;;;;;;;;;22.40;52.40;100782.05;478191;110;922615;-63
2021/08/13 03:19:20;;;;;;;;;;;;;;;22.38;52.47;100779.55;478306;110;921556;-66
2021/08/13 03:20:23;;;;;;;;;;;;;;;22.38;52.51;100781.53;478048;109;922656;-66
2021/08/13 03:21:31;;;;;;;;;;;;;;;22.39;52.55;100777.61;471137;111;922761;-66
2021/08/13 03:22:36;;;;;;;;;;;;;;;22.40;52.56;100780.10;471651;111;923228;-65
2021/08/13 03:23:40;;;;;;;;;;;;;;;22.41;52.68;100776.21;473556;112;922632;-65
2021/08/13 03:24:44;;;;;;;;;;;;;;;22.43;52.68;100779.55;471807;112;923256;-67
2021/08/13 03:25:48;;;;;;;;;;;;;;;22.44;52.58;100775.63;472561;112;923016;-66
2021/08/13 03:26:53;;;;;;;;;;;;;;;22.47;52.47;100779.78;466740;113;922639;-65
2021/08/13 03:27:57;;;;;;;;;;;;;;;22.50;52.41;100779.20;466784;114;923123;-65
2021/08/13 03:29:01;;;;;;;;;;;;;;;22.51;52.17;100780.86;466777;114;923027;-65
2021/08/13 03:30:05;;;;;;;;;;;;;;;22.53;52.20;100775.02;466718;112;922658;-65
2021/08/13 03:31:09;;;;;;;;;;;;;;;22.56;52.23;100777.20;467136;114;921515;-66
2021/08/13 03:32:13;;;;;;;;;;;;;;;22.56;52.17;100778.04;467196;114;921492;-66
2021/08/13 03:33:18;;;;;;;;;;;;;;;22.58;52.22;100784.15;467336;113;921446;-64
2021/08/13 03:34:22;;;;;;;;;;;;;;;22.59;52.30;100782.20;467002;112;922877;-66
2021/08/13 03:35:25;;;;;;;;;;;;;;;22.58;52.29;100775.81;467087;113;922690;-65
2021/08/13 03:36:29;;;;;;;;;;;;;;;22.61;52.32;100785.50;467309;114;921497;-65
2021/08/13 03:37:35;;;;;;;;;;;;;;;22.63;52.22;100778.55;467384;114;921474;-66
2021/08/13 03:38:38;;;;;;;;;;;;;;;22.66;52.03;100782.72;466503;112;921467;-66
2021/08/13 03:39:42;;;;;;;;;;;;;;;22.69;51.85;100777.39;469312;112;921537;-67
2021/08/13 03:40:45;;;;;;;;;;;;;;;22.70;51.80;100783.78;468725;112;921625;-67
2021/08/13 03:41:49;;;;;;;;;;;;;;;22.69;51.83;100771.83;470001;112;921700;-65
2021/08/13 03:42:53;;;;;;;;;;;;;;;22.71;51.97;100779.89;469552;112;921434;-65
2021/08/13 03:43:56;;;;;;;;;;;;;;;22.72;51.90;100779.61;470133;111;921489;-66
2021/08/13 03:45:00;;;;;;;;;;;;;;;22.74;51.95;100773.77;469779;112;921500;-67
2021/08/13 03:46:03;;;;;;;;;;;;;;;22.76;52.15;100783.48;470126;111;921490;-65
2021/08/13 03:47:06;;;;;;;;;;;;;;;22.76;52.34;100783.48;458728;114;921567;-66
2021/08/13 03:48:10;;;;;;;;;;;;;;;22.77;52.49;100781.55;459360;114;921536;-66
2021/08/13 03:49:13;;;;;;;;;;;;;;;22.78;52.49;100778.45;464744;114;921473;-66
2021/08/13 03:50:17;;;;;;;;;;;;;;;22.79;52.28;100785.67;466731;112;921615;-66
2021/08/13 03:51:20;;;;;;;;;;;;;;;22.81;51.52;100775.10;466925;113;923104;-66
2021/08/13 03:52:26;;;;;;;;;;;;;;;22.82;51.63;100779.52;467170;112;923460;-64
2021/08/13 03:53:30;;;;;;;;;;;;;;;22.83;51.80;100778.41;469945;113;923062;-66
2021/08/13 03:54:33;;;;;;;;;;;;;;;22.84;51.78;100782.84;469974;112;922677;-65
2021/08/13 03:55:37;;;;;;;;;;;;;;;22.86;51.88;100780.62;469074;112;922680;-65
2021/08/13 03:56:40;;;;;;;;;;;;;;;22.88;51.79;100786.70;469196;112;922727;-67
2021/08/13 03:57:44;;;;;;;;;;;;;;;22.91;51.62;100782.52;470357;113;922652;-67
2021/08/13 03:58:47;;;;;;;;;;;;;;;22.94;51.63;100786.65;470525;112;923631;-65
2021/08/13 03:59:51;;;;;;;;;;;;;;;22.94;51.72;100786.65;468919;112;923479;-67
2021/08/13 04:00:55;;;;;;;;;;;;;;;22.94;51.43;100783.87;469274;112;922724;-67
2021/08/13 04:01:59;;;;;;;;;;;;;;;22.95;51.27;100782.75;470257;113;921895;-66
2021/08/13 04:03:03;;;;;;;;;;;;;;;22.97;51.32;100781.35;469505;109;922645;-66
2021/08/13 04:04:07;;;;;;;;;;;;;;;23.00;51.33;100785.48;469664;113;922637;-67
2021/08/13 04:05:13;;;;;;;;;;;;;;;23.02;51.41;100788.81;469350;109;922659;-66
2021/08/13 04:06:17;;;;;;;;;;;;;;;23.04;51.39;100786.58;469843;113;922680;-66
2021/08/13 04:07:21;;;;;;;;;;;;;;;23.05;51.50;100794.61;465807;112;922669;-66
2021/08/13 04:08:24;;;;;;;;;;;;;;;23.08;51.43;100794.05;465314;112;923101;-65
2021/08/13 04:09:28;;;;;;;;;;;;;;;23.07;51.04;100795.16;464143;114;922624;-66
2021/08/13 04:10:32;;;;;;;;;;;;;;;23.08;51.06;100801.55;465838;113;922689;-66
2021/08/13 04:11:37;;;;;;;;;;;;;;;23.06;51.19;100792.66;464608;112;921678;-63
2021/08/13 04:12:41;;;;;;;;;;;;;;;23.08;51.38;100798.77;455619;115;922730;-66
2021/08/13 04:13:49;;;;;;;;;;;;;;;23.09;51.50;100800.44;455226;115;924009;-66
2021/08/13 04:14:55;;;;;;;;;;;;;;;23.10;51.65;100811.25;456156;114;922737;-66
2021/08/13 04:16:00;;;;;;;;;;;;;;;23.13;51.74;100810.68;455859;114;921576;-66
2021/08/13 04:17:05;;;;;;;;;;;;;;;23.16;51.70;100809.25;455529;115;922703;-66
2021/08/13 04:18:12;;;;;;;;;;;;;;;23.17;51.34;100805.34;455973;117;922691;-65
2021/08/13 04:19:15;;;;;;;;;;;;;;;23.17;51.08;100813.70;463861;113;922637;-66
2021/08/13 04:20:19;;;;;;;;;;;;;;;23.18;51.03;100812.58;465058;112;922782;-67
2021/08/13 04:21:24;;;;;;;;;;;;;;;23.17;50.62;100808.97;464090;113;921459;-67
2021/08/13 04:22:28;;;;;;;;;;;;;;;23.16;50.83;100815.64;464392;115;921441;-66
2021/08/13 04:23:31;;;;;;;;;;;;;;;23.14;50.87;100817.08;464595;111;921551;-65
2021/08/13 04:24:35;;;;;;;;;;;;;;;23.12;51.05;100811.80;465656;112;921483;-65
2021/08/13 04:25:39;;;;;;;;;;;;;;;23.12;51.20;100819.31;465612;112;921430;-65
2021/08/13 04:26:42;;;;;;;;;;;;;;;23.11;51.24;100812.91;464484;114;921442;-66
2021/08/13 04:27:45;;;;;;;;;;;;;;;23.11;51.28;100815.70;463876;112;921388;-67
2021/08/13 04:28:48;;;;;;;;;;;;;;;23.13;51.39;100816.25;464661;112;921469;-65
2021/08/13 04:29:52;;;;;;;;;;;;;;;23.15;51.42;100805.67;464891;114;921565;-65
2021/08/13 04:30:55;;;;;;;;;;;;;;;23.17;51.25;100816.48;465086;114;921481;-66
2021/08/13 04:31:58;;;;;;;;;;;;;;;23.17;51.17;100808.97;465252;114;921596;-66
2021/08/13 04:33:11;;;;;;;;;;;;;;;23.20;51.18;100810.34;457649;114;921447;-65
2021/08/13 04:34:16;;;;;;;;;;;;;;;23.20;51.31;100815.91;458951;114;921501;-65
2021/08/13 04:35:20;;;;;;;;;;;;;;;23.22;51.35;100813.64;465800;114;921574;-66
2021/08/13 04:36:23;;;;;;;;;;;;;;;23.26;51.28;100817.52;459188;115;921491;-65
2021/08/13 04:37:26;;;;;;;;;;;;;;;23.30;51.22;100821.37;458628;114;922655;-65
2021/08/13 04:38:30;;;;;;;;;;;;;;;23.33;51.16;100820.77;465906;114;922663;-66
2021/08/13 04:39:33;;;;;;;;;;;;;;;23.35;51.19;100812.13;463759;114;922621;-64
2021/08/13 04:40:37;;;;;;;;;;;;;;;23.38;51.16;100819.88;466066;112;923172;-66
2021/08/13 04:41:43;;;;;;;;;;;;;;;23.41;50.84;100819.31;460085;114;922701;-65
2021/08/13 04:42:47;;;;;;;;;;;;;;;23.41;50.85;100814.58;454594;115;922783;-66
2021/08/13 04:43:52;;;;;;;;;;;;;;;23.41;50.84;100817.36;449372;115;922698;-67
2021/08/13 04:44:55;;;;;;;;;;;;;;;23.43;50.91;100817.07;465070;114;922769;-65
2021/08/13 04:46:00;;;;;;;;;;;;;;;23.43;50.84;100819.86;464403;113;922707;-65
2021/08/13 04:47:04;;;;;;;;;;;;;;;23.42;50.80;100813.46;446514;117;922689;-65
2021/08/13 04:48:07;;;;;;;;;;;;;;;23.42;50.88;100818.19;446370;117;923163;-65
2021/08/13 04:49:11;;;;;;;;;;;;;;;23.41;50.71;100806.23;456577;115;923055;-66
2021/08/13 04:50:15;;;;;;;;;;;;;;;23.39;50.70;100808.47;456860;115;921583;-64
2021/08/13 04:51:19;;;;;;;;;;;;;;;23.38;50.72;100804.02;464128;113;922694;-65
2021/08/13 04:52:23;;;;;;;;;;;;;;;23.36;50.75;100805.45;465728;114;922669;-65
2021/08/13 04:53:27;;;;;;;;;;;;;;;23.33;51.02;100804.07;466263;114;921498;-66
2021/08/13 04:54:32;;;;;;;;;;;;;;;23.32;51.16;100805.22;457837;116;922667;-66
2021/08/13 04:55:35;;;;;;;;;;;;;;;23.33;51.18;100801.29;458707;114;922759;-66
2021/08/13 04:56:39;;;;;;;;;;;;;;;23.35;51.19;100809.35;466398;112;922973;-66
2021/08/13 04:57:43;;;;;;;;;;;;;;;23.36;51.27;100808.23;465236;112;922628;-66
2021/08/13 04:58:47;;;;;;;;;;;;;;;23.38;51.12;100805.97;464397;112;923569;-66
2021/08/13 04:59:52;;;;;;;;;;;;;;;23.40;51.07;100812.91;463443;115;922698;-65
2021/08/13 05:00:56;;;;;;;;;;;;;;;23.41;51.11;100810.96;464074;113;923132;-65
2021/08/13 05:02:01;;;;;;;;;;;;;;;23.43;51.30;100803.95;464746;112;922677;-65
2021/08/13 05:03:05;;;;;;;;;;;;;;;23.44;51.13;100810.36;464990;113;923471;-65
2021/08/13 05:04:11;;;;;;;;;;;;;;;23.45;51.07;100810.07;465514;114;922677;-64
2021/08/13 05:05:16;;;;;;;;;;;;;;;23.48;51.06;100812.31;464354;111;922683;-64
2021/08/13 05:06:21;;;;;;;;;;;;;;;23.51;51.22;100813.66;464099;112;922658;-66
2021/08/13 05:07:24;;;;;;;;;;;;;;;23.52;50.93;100807.81;466770;113;922614;-66
2021/08/13 05:08:29;;;;;;;;;;;;;;;23.54;50.97;100810.30;466743;114;922561;-65
2021/08/13 05:09:35;;;;;;;;;;;;;;;23.55;50.79;100818.34;466721;112;921418;-66
2021/08/13 05:10:38;;;;;;;;;;;;;;;23.57;50.75;100816.10;466463;112;921520;-64
2021/08/13 05:11:42;;;;;;;;;;;;;;;23.59;50.72;100825.00;466890;113;922640;-65
2021/08/13 05:12:46;;;;;;;;;;;;;;;23.61;50.73;100819.94;466381;114;921543;-65
2021/08/13 05:13:50;;;;;;;;;;;;;;;23.62;50.68;100821.61;457137;114;922750;-65
2021/08/13 05:14:54;;;;;;;;;;;;;;;23.60;50.77;100821.06;458335;114;921717;-66
2021/08/13 05:15:58;;;;;;;;;;;;;;;23.59;50.83;100822.21;464050;113;922637;-66
2021/08/13 05:17:03;;;;;;;;;;;;;;;23.61;51.08;100819.94;461771;115;921493;-66
2021/08/13 05:18:06;;;;;;;;;;;;;;;23.61;51.12;100824.67;462048;114;921477;-65
2021/08/13 05:19:12;;;;;;;;;;;;;;;23.61;51.09;100825.51;461576;113;921332;-66
2021/08/13 05:20:16;;;;;;;;;;;;;;;23.61;50.99;100825.51;461130;112;921476;-66
2021/08/13 05:21:21;;;;;;;;;;;;;;;23.60;51.01;100828.58;459323;115;921519;-65
2021/08/13 05:22:24;;;;;;;;;;;;;;;23.59;51.04;100833.34;460781;114;921463;-65
2021/08/13 05:23:27;;;;;;;;;;;;;;;23.58;51.25;100828.90;460311;114;921464;-66
2021/08/13 05:24:31;;;;;;;;;;;;;;;23.61;51.36;100833.03;460090;115;921453;-66
2021/08/13 05:25:34;;;;;;;;;;;;;;;23.62;51.37;100837.48;460112;115;921687;-64
2021/08/13 05:26:41;;;;;;;;;;;;;;;23.64;51.24;100843.59;460147;114;921432;-66
2021/08/13 05:27:46;;;;;;;;;;;;;;;23.66;51.32;100841.32;459797;113;921511;-66
2021/08/13 05:28:50;;;;;;;;;;;;;;;23.68;51.37;100841.87;459754;115;921726;-66
2021/08/13 05:29:55;;;;;;;;;;;;;;;23.69;51.55;100840.75;460459;115;921470;-66
2021/08/13 05:30:58;;;;;;;;;;;;;;;23.73;51.56;100838.19;461221;113;921643;-65